Gothenburg, NE (69138)

2:42 AM CDT on May 25, 2015 (GMT -0500)
KNEGOTHE4 | | Change Station
CLOSE
Current Station
Personal Weather Station
Location: Gothenburg, NE
Elevation: 2572 ft
Nearby Weather Stations

Elev 2572 ft 40.92 °N, 100.17 °W | Updated 2 minutes ago

Mostly Cloudy
Mostly Cloudy
52.5 °F
Feels Like 52.5 °F
N
0.0
Wind Variable Wind from South
Gusts 0.0 mph

Today
High -- | Low -- °F
--% Chance of Precip.
Yesterday
High -- | Low -- °F
Precip. -- in
6:15 AM 9:00 PM
Waxing Crescent, 46% visible
Pressure 29.76 in
Visibility 10.0 miles
Clouds Mostly Cloudy 300 ft
Mostly Cloudy 600 ft
Dew Point 49 °F
Humidity 89%
Rainfall 0.02 in
Snow Depth Not available.
UV 0 out of 12
Pollen 6.00 out of 12
Air Quality Not available.
Flu Activity No Activity
METAR KLXN 250735Z AUTO 03003KT 10SM -RA BKN003 BKN006 13/12 A2976 RMK AO2 T01250116

More Conditions Fewer Conditions

Pressure 29.76 in
Visibility 10.0 miles
Clouds Mostly Cloudy 300 ft
Mostly Cloudy 600 ft
Dew Point 49 °F
Humidity 89%
Rainfall 0.02 in
Snow Depth Not available.
UV 0 out of 12
Pollen 6.00 out of 12
Air Quality Not available.
Flu Activity No Activity
METAR KLXN 250735Z AUTO 03003KT 10SM -RA BKN003 BKN006 13/12 A2976 RMK AO2 T01250116

More Conditions Fewer Conditions

10-Day Weather Forecast

Almanac

Astronomy

May. 25, 2015 Rise Set
Actual Time
Civil Twilight
Nautical Twilight
Astronomical Twilight
Moon
Length of Visible Light
Length of Day
Tomorrow will be .
, % of the Moon is Illuminated

Today's Extremes

State Highs State Lows

Community

WunderPhotos

Upload Photos

1,823,959 photos uploaded!

WunderBlogs® & News

Nearby

Air Quality

  Air Quality AQ Index Pollutant
Not available.

Snow Depth

Station Depth Elevation

Earthquake Activity

City Distance Mag. Time & Date
Minimum magnitude displayed is 2.5.

Coastal Water Temperatures

Place Temperature

Stations

Nearby Weather Stations

Station Location Temp. Windchill Dew Point Humidity Wind Precip. Elev Updated Type